sensor_id;sensor_type;location;lat;lon;timestamp;P1;durP1;ratioP1;P2;durP2;ratioP2
77769;SDS011;66961;51.482;9.160;2023-11-21T00:01:45;25.43;;;11.00;;
77769;SDS011;66961;51.482;9.160;2023-11-21T00:04:10;21.67;;;11.07;;
77769;SDS011;66961;51.482;9.160;2023-11-21T00:06:35;18.00;;;11.67;;
77769;SDS011;66961;51.482;9.160;2023-11-21T00:09:00;22.30;;;10.80;;
77769;SDS011;66961;51.482;9.160;2023-11-21T00:11:26;25.00;;;10.13;;
77769;SDS011;66961;51.482;9.160;2023-11-21T00:13:51;15.83;;;8.93;;
77769;SDS011;66961;51.482;9.160;2023-11-21T00:16:16;19.98;;;9.05;;
77769;SDS011;66961;51.482;9.160;2023-11-21T00:18:42;15.82;;;9.35;;
77769;SDS011;66961;51.482;9.160;2023-11-21T00:21:07;13.97;;;8.40;;
77769;SDS011;66961;51.482;9.160;2023-11-21T00:23:32;14.47;;;8.53;;
77769;SDS011;66961;51.482;9.160;2023-11-21T00:25:58;20.03;;;8.90;;
77769;SDS011;66961;51.482;9.160;2023-11-21T00:28:23;17.10;;;9.03;;
77769;SDS011;66961;51.482;9.160;2023-11-21T00:30:49;14.52;;;8.93;;
77769;SDS011;66961;51.482;9.160;2023-11-21T00:33:14;20.87;;;9.53;;
77769;SDS011;66961;51.482;9.160;2023-11-21T00:35:39;16.77;;;8.83;;
77769;SDS011;66961;51.482;9.160;2023-11-21T00:38:04;22.00;;;9.70;;
77769;SDS011;66961;51.482;9.160;2023-11-21T00:40:30;16.33;;;9.97;;
77769;SDS011;66961;51.482;9.160;2023-11-21T00:42:55;19.83;;;10.10;;
77769;SDS011;66961;51.482;9.160;2023-11-21T00:45:20;19.10;;;10.13;;
77769;SDS011;66961;51.482;9.160;2023-11-21T00:47:45;17.67;;;9.07;;
77769;SDS011;66961;51.482;9.160;2023-11-21T00:50:11;15.47;;;9.33;;
77769;SDS011;66961;51.482;9.160;2023-11-21T00:52:36;13.77;;;9.03;;
77769;SDS011;66961;51.482;9.160;2023-11-21T00:55:02;13.50;;;8.00;;
77769;SDS011;66961;51.482;9.160;2023-11-21T00:57:27;17.08;;;9.73;;
77769;SDS011;66961;51.482;9.160;2023-11-21T00:59:53;18.95;;;9.85;;
77769;SDS011;66961;51.482;9.160;2023-11-21T01:02:18;17.53;;;10.43;;
77769;SDS011;66961;51.482;9.160;2023-11-21T01:04:43;16.37;;;9.17;;
77769;SDS011;66961;51.482;9.160;2023-11-21T01:07:09;19.40;;;10.63;;
77769;SDS011;66961;51.482;9.160;2023-11-21T01:09:34;17.73;;;8.87;;
77769;SDS011;66961;51.482;9.160;2023-11-21T01:11:59;17.87;;;10.50;;
77769;SDS011;66961;51.482;9.160;2023-11-21T01:14:25;17.83;;;9.77;;
77769;SDS011;66961;51.482;9.160;2023-11-21T01:16:50;16.15;;;9.10;;
77769;SDS011;66961;51.482;9.160;2023-11-21T01:19:15;14.30;;;9.30;;
77769;SDS011;66961;51.482;9.160;2023-11-21T01:21:40;17.67;;;9.80;;
77769;SDS011;66961;51.482;9.160;2023-11-21T01:24:06;14.23;;;9.27;;
77769;SDS011;66961;51.482;9.160;2023-11-21T01:26:31;15.15;;;8.90;;
77769;SDS011;66961;51.482;9.160;2023-11-21T01:28:57;17.23;;;8.93;;
77769;SDS011;66961;51.482;9.160;2023-11-21T01:31:22;14.55;;;8.63;;
77769;SDS011;66961;51.482;9.160;2023-11-21T01:33:47;15.13;;;8.57;;
77769;SDS011;66961;51.482;9.160;2023-11-21T01:36:12;12.13;;;7.50;;
77769;SDS011;66961;51.482;9.160;2023-11-21T01:38:38;12.20;;;7.37;;
77769;SDS011;66961;51.482;9.160;2023-11-21T01:41:03;21.03;;;8.53;;
77769;SDS011;66961;51.482;9.160;2023-11-21T01:43:29;16.23;;;7.10;;
77769;SDS011;66961;51.482;9.160;2023-11-21T01:45:54;13.50;;;7.40;;
77769;SDS011;66961;51.482;9.160;2023-11-21T01:48:19;17.55;;;8.57;;
77769;SDS011;66961;51.482;9.160;2023-11-21T01:50:45;13.55;;;7.90;;
77769;SDS011;66961;51.482;9.160;2023-11-21T01:53:11;18.33;;;9.10;;
77769;SDS011;66961;51.482;9.160;2023-11-21T01:55:37;14.73;;;8.95;;
77769;SDS011;66961;51.482;9.160;2023-11-21T01:58:02;14.97;;;8.27;;
77769;SDS011;66961;51.482;9.160;2023-11-21T02:00:28;15.38;;;8.60;;
77769;SDS011;66961;51.482;9.160;2023-11-21T02:02:53;13.60;;;9.10;;
77769;SDS011;66961;51.482;9.160;2023-11-21T02:05:19;17.47;;;10.17;;
77769;SDS011;66961;51.482;9.160;2023-11-21T02:07:45;16.48;;;9.40;;
77769;SDS011;66961;51.482;9.160;2023-11-21T02:10:11;17.92;;;10.05;;
77769;SDS011;66961;51.482;9.160;2023-11-21T02:12:36;16.75;;;9.68;;
77769;SDS011;66961;51.482;9.160;2023-11-21T02:15:02;22.10;;;10.73;;
77769;SDS011;66961;51.482;9.160;2023-11-21T02:17:28;24.83;;;11.63;;
77769;SDS011;66961;51.482;9.160;2023-11-21T02:19:53;25.10;;;10.73;;
77769;SDS011;66961;51.482;9.160;2023-11-21T02:22:18;19.73;;;7.83;;
77769;SDS011;66961;51.482;9.160;2023-11-21T02:24:45;15.98;;;7.68;;
77769;SDS011;66961;51.482;9.160;2023-11-21T02:27:11;16.33;;;7.60;;
77769;SDS011;66961;51.482;9.160;2023-11-21T02:29:37;19.45;;;7.20;;
77769;SDS011;66961;51.482;9.160;2023-11-21T02:32:02;14.80;;;6.40;;
77769;SDS011;66961;51.482;9.160;2023-11-21T02:34:27;12.90;;;5.68;;
77769;SDS011;66961;51.482;9.160;2023-11-21T02:36:52;15.27;;;5.67;;
77769;SDS011;66961;51.482;9.160;2023-11-21T02:39:18;13.83;;;5.90;;
77769;SDS011;66961;51.482;9.160;2023-11-21T02:41:43;12.60;;;6.47;;
77769;SDS011;66961;51.482;9.160;2023-11-21T02:44:09;10.02;;;5.38;;
77769;SDS011;66961;51.482;9.160;2023-11-21T02:46:35;26.60;;;6.60;;
77769;SDS011;66961;51.482;9.160;2023-11-21T02:49:02;92.07;;;11.20;;
77769;SDS011;66961;51.482;9.160;2023-11-21T02:51:28;67.97;;;11.70;;
77769;SDS011;66961;51.482;9.160;2023-11-21T02:53:53;64.87;;;9.67;;
77769;SDS011;66961;51.482;9.160;2023-11-21T02:56:18;141.37;;;14.40;;
77769;SDS011;66961;51.482;9.160;2023-11-21T02:58:44;132.60;;;13.57;;
77769;SDS011;66961;51.482;9.160;2023-11-21T03:01:09;130.38;;;13.35;;
77769;SDS011;66961;51.482;9.160;2023-11-21T03:03:35;194.07;;;17.20;;
77769;SDS011;66961;51.482;9.160;2023-11-21T03:06:00;120.17;;;12.87;;
77769;SDS011;66961;51.482;9.160;2023-11-21T03:08:25;232.17;;;22.33;;
77769;SDS011;66961;51.482;9.160;2023-11-21T03:10:50;124.33;;;14.70;;
77769;SDS011;66961;51.482;9.160;2023-11-21T03:13:16;135.67;;;15.23;;
77769;SDS011;66961;51.482;9.160;2023-11-21T03:15:41;107.77;;;14.47;;
77769;SDS011;66961;51.482;9.160;2023-11-21T03:18:06;128.13;;;13.73;;
77769;SDS011;66961;51.482;9.160;2023-11-21T03:20:31;112.20;;;12.47;;
77769;SDS011;66961;51.482;9.160;2023-11-21T03:22:57;175.87;;;15.30;;
77769;SDS011;66961;51.482;9.160;2023-11-21T03:25:22;110.93;;;13.63;;
77769;SDS011;66961;51.482;9.160;2023-11-21T03:27:47;159.70;;;15.75;;
77769;SDS011;66961;51.482;9.160;2023-11-21T03:30:13;119.87;;;14.33;;
77769;SDS011;66961;51.482;9.160;2023-11-21T03:32:38;220.80;;;20.40;;
77769;SDS011;66961;51.482;9.160;2023-11-21T03:35:03;159.80;;;17.83;;
77769;SDS011;66961;51.482;9.160;2023-11-21T03:37:29;137.32;;;15.68;;
77769;SDS011;66961;51.482;9.160;2023-11-21T03:39:54;250.00;;;22.37;;
77769;SDS011;66961;51.482;9.160;2023-11-21T03:42:20;92.40;;;13.10;;
77769;SDS011;66961;51.482;9.160;2023-11-21T03:44:45;54.07;;;10.93;;
77769;SDS011;66961;51.482;9.160;2023-11-21T03:47:11;86.97;;;11.37;;
77769;SDS011;66961;51.482;9.160;2023-11-21T03:49:36;62.50;;;11.93;;
77769;SDS011;66961;51.482;9.160;2023-11-21T03:52:02;102.75;;;11.68;;
77769;SDS011;66961;51.482;9.160;2023-11-21T03:54:28;104.88;;;13.27;;
77769;SDS011;66961;51.482;9.160;2023-11-21T03:56:53;134.13;;;13.37;;
77769;SDS011;66961;51.482;9.160;2023-11-21T03:59:18;68.63;;;8.93;;
77769;SDS011;66961;51.482;9.160;2023-11-21T04:01:43;87.87;;;13.50;;
77769;SDS011;66961;51.482;9.160;2023-11-21T04:04:09;61.33;;;10.10;;
77769;SDS011;66961;51.482;9.160;2023-11-21T04:06:34;233.13;;;18.17;;
77769;SDS011;66961;51.482;9.160;2023-11-21T04:08:59;118.13;;;12.80;;
77769;SDS011;66961;51.482;9.160;2023-11-21T04:11:24;59.27;;;10.47;;
77769;SDS011;66961;51.482;9.160;2023-11-21T04:13:50;84.47;;;10.87;;
77769;SDS011;66961;51.482;9.160;2023-11-21T04:16:15;43.50;;;7.63;;
77769;SDS011;66961;51.482;9.160;2023-11-21T04:18:40;54.40;;;9.10;;
77769;SDS011;66961;51.482;9.160;2023-11-21T04:21:06;29.63;;;8.37;;
77769;SDS011;66961;51.482;9.160;2023-11-21T04:23:31;28.05;;;7.18;;
77769;SDS011;66961;51.482;9.160;2023-11-21T04:25:57;64.00;;;8.10;;
77769;SDS011;66961;51.482;9.160;2023-11-21T04:28:23;23.38;;;6.90;;
77769;SDS011;66961;51.482;9.160;2023-11-21T04:30:48;22.65;;;7.35;;
77769;SDS011;66961;51.482;9.160;2023-11-21T04:33:13;77.73;;;10.73;;
77769;SDS011;66961;51.482;9.160;2023-11-21T04:35:39;90.73;;;10.83;;
77769;SDS011;66961;51.482;9.160;2023-11-21T04:38:04;64.17;;;9.77;;
77769;SDS011;66961;51.482;9.160;2023-11-21T04:40:29;28.13;;;8.60;;
77769;SDS011;66961;51.482;9.160;2023-11-21T04:42:54;26.03;;;8.17;;
77769;SDS011;66961;51.482;9.160;2023-11-21T04:45:20;62.00;;;10.37;;
77769;SDS011;66961;51.482;9.160;2023-11-21T04:47:45;18.47;;;8.07;;
77769;SDS011;66961;51.482;9.160;2023-11-21T04:50:10;12.33;;;6.47;;
77769;SDS011;66961;51.482;9.160;2023-11-21T04:52:35;13.57;;;6.37;;
77769;SDS011;66961;51.482;9.160;2023-11-21T04:55:01;13.83;;;7.10;;
77769;SDS011;66961;51.482;9.160;2023-11-21T04:57:26;13.07;;;7.05;;
77769;SDS011;66961;51.482;9.160;2023-11-21T04:59:51;13.00;;;6.77;;
77769;SDS011;66961;51.482;9.160;2023-11-21T05:02:16;15.77;;;6.70;;
77769;SDS011;66961;51.482;9.160;2023-11-21T05:04:42;11.67;;;6.50;;
77769;SDS011;66961;51.482;9.160;2023-11-21T05:07:07;14.40;;;6.73;;
77769;SDS011;66961;51.482;9.160;2023-11-21T05:09:32;14.53;;;7.80;;
77769;SDS011;66961;51.482;9.160;2023-11-21T05:11:58;14.13;;;7.47;;
77769;SDS011;66961;51.482;9.160;2023-11-21T05:14:23;15.52;;;8.27;;
77769;SDS011;66961;51.482;9.160;2023-11-21T05:16:48;11.73;;;6.97;;
77769;SDS011;66961;51.482;9.160;2023-11-21T05:19:13;13.50;;;7.37;;
77769;SDS011;66961;51.482;9.160;2023-11-21T05:21:39;10.27;;;6.47;;
77769;SDS011;66961;51.482;9.160;2023-11-21T05:24:04;11.43;;;6.53;;
77769;SDS011;66961;51.482;9.160;2023-11-21T05:26:30;14.30;;;7.00;;
77769;SDS011;66961;51.482;9.160;2023-11-21T05:28:55;14.00;;;7.10;;
77769;SDS011;66961;51.482;9.160;2023-11-21T05:31:20;13.63;;;6.03;;
77769;SDS011;66961;51.482;9.160;2023-11-21T05:33:46;13.23;;;6.63;;
77769;SDS011;66961;51.482;9.160;2023-11-21T05:36:12;9.60;;;6.07;;
77769;SDS011;66961;51.482;9.160;2023-11-21T05:38:37;11.33;;;5.97;;
77769;SDS011;66961;51.482;9.160;2023-11-21T05:41:02;12.30;;;6.07;;
77769;SDS011;66961;51.482;9.160;2023-11-21T05:43:28;10.80;;;6.13;;
77769;SDS011;66961;51.482;9.160;2023-11-21T05:45:53;9.13;;;5.60;;
77769;SDS011;66961;51.482;9.160;2023-11-21T05:48:18;10.23;;;5.40;;
77769;SDS011;66961;51.482;9.160;2023-11-21T05:50:44;13.07;;;5.77;;
77769;SDS011;66961;51.482;9.160;2023-11-21T05:53:09;11.83;;;6.40;;
77769;SDS011;66961;51.482;9.160;2023-11-21T05:55:34;16.93;;;6.47;;
77769;SDS011;66961;51.482;9.160;2023-11-21T05:57:59;13.27;;;6.37;;
77769;SDS011;66961;51.482;9.160;2023-11-21T06:00:25;15.97;;;7.20;;
77769;SDS011;66961;51.482;9.160;2023-11-21T06:02:50;15.17;;;7.03;;
77769;SDS011;66961;51.482;9.160;2023-11-21T06:05:17;18.55;;;7.13;;
77769;SDS011;66961;51.482;9.160;2023-11-21T06:07:43;14.80;;;7.88;;
77769;SDS011;66961;51.482;9.160;2023-11-21T06:10:10;13.38;;;7.70;;
77769;SDS011;66961;51.482;9.160;2023-11-21T06:12:36;17.95;;;9.82;;
77769;SDS011;66961;51.482;9.160;2023-11-21T06:15:03;16.15;;;8.20;;
77769;SDS011;66961;51.482;9.160;2023-11-21T06:17:29;14.70;;;9.07;;
77769;SDS011;66961;51.482;9.160;2023-11-21T06:19:54;12.40;;;7.33;;
77769;SDS011;66961;51.482;9.160;2023-11-21T06:22:19;16.47;;;8.33;;
77769;SDS011;66961;51.482;9.160;2023-11-21T06:24:45;19.00;;;8.43;;
77769;SDS011;66961;51.482;9.160;2023-11-21T06:27:10;24.27;;;8.35;;
77769;SDS011;66961;51.482;9.160;2023-11-21T06:29:35;26.53;;;8.23;;
77769;SDS011;66961;51.482;9.160;2023-11-21T06:32:00;50.93;;;9.20;;
77769;SDS011;66961;51.482;9.160;2023-11-21T06:34:26;172.10;;;13.53;;
77769;SDS011;66961;51.482;9.160;2023-11-21T06:36:51;53.60;;;8.37;;
77769;SDS011;66961;51.482;9.160;2023-11-21T06:39:16;68.03;;;9.57;;
77769;SDS011;66961;51.482;9.160;2023-11-21T06:41:41;53.27;;;8.43;;
77769;SDS011;66961;51.482;9.160;2023-11-21T06:44:07;55.38;;;9.25;;
77769;SDS011;66961;51.482;9.160;2023-11-21T06:46:32;116.53;;;11.67;;
77769;SDS011;66961;51.482;9.160;2023-11-21T06:48:59;73.38;;;10.15;;
77769;SDS011;66961;51.482;9.160;2023-11-21T06:51:24;63.03;;;9.67;;
77769;SDS011;66961;51.482;9.160;2023-11-21T06:53:49;32.93;;;8.70;;
77769;SDS011;66961;51.482;9.160;2023-11-21T06:56:15;29.77;;;7.50;;
77769;SDS011;66961;51.482;9.160;2023-11-21T06:58:41;23.65;;;6.80;;
77769;SDS011;66961;51.482;9.160;2023-11-21T07:01:07;33.92;;;8.30;;
77769;SDS011;66961;51.482;9.160;2023-11-21T07:03:32;19.17;;;7.40;;
77769;SDS011;66961;51.482;9.160;2023-11-21T07:05:57;27.87;;;7.83;;
77769;SDS011;66961;51.482;9.160;2023-11-21T07:08:22;21.43;;;6.80;;
77769;SDS011;66961;51.482;9.160;2023-11-21T07:10:48;21.80;;;7.37;;
77769;SDS011;66961;51.482;9.160;2023-11-21T07:13:13;20.23;;;7.07;;
77769;SDS011;66961;51.482;9.160;2023-11-21T07:15:38;22.17;;;6.93;;
77769;SDS011;66961;51.482;9.160;2023-11-21T07:18:03;20.80;;;6.20;;
77769;SDS011;66961;51.482;9.160;2023-11-21T07:20:29;17.53;;;6.30;;
77769;SDS011;66961;51.482;9.160;2023-11-21T07:22:54;20.53;;;7.63;;
77769;SDS011;66961;51.482;9.160;2023-11-21T07:25:19;19.30;;;7.03;;
77769;SDS011;66961;51.482;9.160;2023-11-21T07:27:44;19.83;;;6.50;;
77769;SDS011;66961;51.482;9.160;2023-11-21T07:30:10;19.67;;;6.83;;
77769;SDS011;66961;51.482;9.160;2023-11-21T07:32:36;13.10;;;6.78;;
77769;SDS011;66961;51.482;9.160;2023-11-21T07:35:01;22.30;;;6.80;;
77769;SDS011;66961;51.482;9.160;2023-11-21T07:37:26;19.43;;;6.83;;
77769;SDS011;66961;51.482;9.160;2023-11-21T07:39:51;13.97;;;6.57;;
77769;SDS011;66961;51.482;9.160;2023-11-21T07:42:17;14.10;;;5.97;;
77769;SDS011;66961;51.482;9.160;2023-11-21T07:44:42;13.63;;;6.03;;
77769;SDS011;66961;51.482;9.160;2023-11-21T07:47:07;13.03;;;5.70;;
77769;SDS011;66961;51.482;9.160;2023-11-21T07:49:32;13.00;;;5.43;;
77769;SDS011;66961;51.482;9.160;2023-11-21T07:51:58;16.50;;;6.10;;
77769;SDS011;66961;51.482;9.160;2023-11-21T07:54:23;15.50;;;6.37;;
77769;SDS011;66961;51.482;9.160;2023-11-21T07:56:48;14.40;;;6.50;;
77769;SDS011;66961;51.482;9.160;2023-11-21T07:59:13;14.93;;;5.97;;
77769;SDS011;66961;51.482;9.160;2023-11-21T08:01:39;16.00;;;5.57;;
77769;SDS011;66961;51.482;9.160;2023-11-21T08:04:04;20.08;;;6.82;;
77769;SDS011;66961;51.482;9.160;2023-11-21T08:06:29;15.02;;;6.90;;
77769;SDS011;66961;51.482;9.160;2023-11-21T08:08:55;18.10;;;9.80;;
77769;SDS011;66961;51.482;9.160;2023-11-21T08:11:20;15.83;;;8.60;;
77769;SDS011;66961;51.482;9.160;2023-11-21T08:13:45;14.73;;;6.83;;
77769;SDS011;66961;51.482;9.160;2023-11-21T08:16:11;11.07;;;6.40;;
77769;SDS011;66961;51.482;9.160;2023-11-21T08:18:36;12.57;;;6.50;;
77769;SDS011;66961;51.482;9.160;2023-11-21T08:21:01;16.33;;;7.63;;
77769;SDS011;66961;51.482;9.160;2023-11-21T08:23:26;23.17;;;7.23;;
77769;SDS011;66961;51.482;9.160;2023-11-21T08:25:52;20.00;;;7.50;;
77769;SDS011;66961;51.482;9.160;2023-11-21T08:28:18;18.58;;;7.07;;
77769;SDS011;66961;51.482;9.160;2023-11-21T08:30:44;23.05;;;7.15;;
77769;SDS011;66961;51.482;9.160;2023-11-21T08:33:09;19.43;;;7.37;;
77769;SDS011;66961;51.482;9.160;2023-11-21T08:35:35;19.73;;;7.13;;
77769;SDS011;66961;51.482;9.160;2023-11-21T08:38:00;25.00;;;7.63;;
77769;SDS011;66961;51.482;9.160;2023-11-21T08:40:25;20.73;;;6.90;;
77769;SDS011;66961;51.482;9.160;2023-11-21T08:42:51;26.33;;;7.87;;
77769;SDS011;66961;51.482;9.160;2023-11-21T08:45:16;19.80;;;6.78;;
77769;SDS011;66961;51.482;9.160;2023-11-21T08:47:42;31.47;;;7.93;;
77769;SDS011;66961;51.482;9.160;2023-11-21T08:50:07;25.43;;;8.47;;
77769;SDS011;66961;51.482;9.160;2023-11-21T08:52:35;29.70;;;9.07;;
77769;SDS011;66961;51.482;9.160;2023-11-21T08:55:00;24.40;;;7.47;;
77769;SDS011;66961;51.482;9.160;2023-11-21T08:57:25;26.30;;;8.03;;
77769;SDS011;66961;51.482;9.160;2023-11-21T08:59:51;25.90;;;8.83;;
77769;SDS011;66961;51.482;9.160;2023-11-21T09:02:16;25.83;;;8.27;;
77769;SDS011;66961;51.482;9.160;2023-11-21T09:04:41;26.83;;;8.33;;
77769;SDS011;66961;51.482;9.160;2023-11-21T09:07:07;25.57;;;8.50;;
77769;SDS011;66961;51.482;9.160;2023-11-21T09:09:32;23.70;;;8.00;;
77769;SDS011;66961;51.482;9.160;2023-11-21T09:11:57;18.40;;;8.10;;
77769;SDS011;66961;51.482;9.160;2023-11-21T09:14:22;21.77;;;7.27;;
77769;SDS011;66961;51.482;9.160;2023-11-21T09:16:48;25.33;;;9.20;;
77769;SDS011;66961;51.482;9.160;2023-11-21T09:19:13;23.73;;;8.07;;
77769;SDS011;66961;51.482;9.160;2023-11-21T09:21:38;27.57;;;9.23;;
77769;SDS011;66961;51.482;9.160;2023-11-21T09:24:03;27.23;;;8.63;;
77769;SDS011;66961;51.482;9.160;2023-11-21T09:26:29;21.02;;;8.90;;
77769;SDS011;66961;51.482;9.160;2023-11-21T09:28:54;25.33;;;9.07;;
77769;SDS011;66961;51.482;9.160;2023-11-21T09:31:20;28.37;;;11.13;;
77769;SDS011;66961;51.482;9.160;2023-11-21T09:33:45;26.67;;;9.90;;
77769;SDS011;66961;51.482;9.160;2023-11-21T09:36:13;29.67;;;10.40;;
77769;SDS011;66961;51.482;9.160;2023-11-21T09:38:39;22.55;;;8.48;;
77769;SDS011;66961;51.482;9.160;2023-11-21T09:41:04;29.13;;;10.03;;
77769;SDS011;66961;51.482;9.160;2023-11-21T09:43:35;20.60;;;8.80;;
77769;SDS011;66961;51.482;9.160;2023-11-21T09:46:01;32.58;;;9.48;;
77769;SDS011;66961;51.482;9.160;2023-11-21T09:48:28;24.50;;;9.43;;
77769;SDS011;66961;51.482;9.160;2023-11-21T09:50:55;30.40;;;9.05;;
77769;SDS011;66961;51.482;9.160;2023-11-21T09:53:21;36.75;;;11.25;;
77769;SDS011;66961;51.482;9.160;2023-11-21T09:55:47;30.83;;;10.80;;
77769;SDS011;66961;51.482;9.160;2023-11-21T09:58:15;28.70;;;10.65;;
77769;SDS011;66961;51.482;9.160;2023-11-21T10:00:41;25.63;;;10.52;;
77769;SDS011;66961;51.482;9.160;2023-11-21T10:03:08;34.22;;;12.02;;
77769;SDS011;66961;51.482;9.160;2023-11-21T10:05:34;40.58;;;13.45;;
77769;SDS011;66961;51.482;9.160;2023-11-21T10:07:59;31.20;;;13.27;;
77769;SDS011;66961;51.482;9.160;2023-11-21T10:10:25;33.33;;;11.63;;
77769;SDS011;66961;51.482;9.160;2023-11-21T10:12:54;27.48;;;9.65;;
77769;SDS011;66961;51.482;9.160;2023-11-21T10:15:22;28.05;;;10.07;;
77769;SDS011;66961;51.482;9.160;2023-11-21T10:17:51;28.33;;;10.00;;
77769;SDS011;66961;51.482;9.160;2023-11-21T10:20:19;23.58;;;10.15;;
77769;SDS011;66961;51.482;9.160;2023-11-21T10:22:45;38.08;;;11.45;;
77769;SDS011;66961;51.482;9.160;2023-11-21T10:25:10;36.22;;;10.30;;
77769;SDS011;66961;51.482;9.160;2023-11-21T10:27:37;32.50;;;10.05;;
77769;SDS011;66961;51.482;9.160;2023-11-21T10:30:02;31.25;;;10.50;;
77769;SDS011;66961;51.482;9.160;2023-11-21T10:32:28;32.78;;;10.90;;
77769;SDS011;66961;51.482;9.160;2023-11-21T10:34:57;31.77;;;10.70;;
77769;SDS011;66961;51.482;9.160;2023-11-21T10:37:22;40.60;;;12.07;;
77769;SDS011;66961;51.482;9.160;2023-11-21T10:39:47;38.35;;;12.38;;
77769;SDS011;66961;51.482;9.160;2023-11-21T10:42:13;38.40;;;11.70;;
77769;SDS011;66961;51.482;9.160;2023-11-21T10:44:38;31.83;;;10.77;;
77769;SDS011;66961;51.482;9.160;2023-11-21T10:47:03;41.37;;;11.43;;
77769;SDS011;66961;51.482;9.160;2023-11-21T10:49:29;39.50;;;12.35;;
77769;SDS011;66961;51.482;9.160;2023-11-21T10:51:54;30.83;;;11.50;;
77769;SDS011;66961;51.482;9.160;2023-11-21T10:54:20;38.37;;;12.13;;
77769;SDS011;66961;51.482;9.160;2023-11-21T10:56:47;36.47;;;11.85;;
77769;SDS011;66961;51.482;9.160;2023-11-21T10:59:14;38.75;;;12.07;;
77769;SDS011;66961;51.482;9.160;2023-11-21T11:01:40;32.90;;;12.23;;
77769;SDS011;66961;51.482;9.160;2023-11-21T11:04:09;46.58;;;14.55;;
77769;SDS011;66961;51.482;9.160;2023-11-21T11:06:36;41.85;;;11.57;;
77769;SDS011;66961;51.482;9.160;2023-11-21T11:09:01;47.97;;;12.63;;
77769;SDS011;66961;51.482;9.160;2023-11-21T11:11:27;44.20;;;14.30;;
77769;SDS011;66961;51.482;9.160;2023-11-21T11:13:55;44.15;;;14.02;;
77769;SDS011;66961;51.482;9.160;2023-11-21T11:16:21;50.25;;;13.60;;
77769;SDS011;66961;51.482;9.160;2023-11-21T11:18:47;41.40;;;14.00;;
77769;SDS011;66961;51.482;9.160;2023-11-21T11:21:20;51.10;;;16.57;;
77769;SDS011;66961;51.482;9.160;2023-11-21T11:26:56;41.22;;;13.27;;
77769;SDS011;66961;51.482;9.160;2023-11-21T11:38:17;35.40;;;12.02;;
77769;SDS011;66961;51.482;9.160;2023-11-21T11:40:46;37.33;;;12.95;;
77769;SDS011;66961;51.482;9.160;2023-11-21T11:43:12;34.78;;;12.52;;
77769;SDS011;66961;51.482;9.160;2023-11-21T11:45:37;31.00;;;12.25;;
77769;SDS011;66961;51.482;9.160;2023-11-21T11:48:05;27.48;;;11.88;;
77769;SDS011;66961;51.482;9.160;2023-11-21T11:50:30;29.83;;;12.70;;
77769;SDS011;66961;51.482;9.160;2023-11-21T11:53:11;25.67;;;10.48;;
77769;SDS011;66961;51.482;9.160;2023-11-21T11:55:39;32.08;;;11.05;;
77769;SDS011;66961;51.482;9.160;2023-11-21T11:58:07;26.25;;;11.40;;
77769;SDS011;66961;51.482;9.160;2023-11-21T12:00:33;25.88;;;10.63;;
77769;SDS011;66961;51.482;9.160;2023-11-21T12:03:00;23.65;;;10.88;;
77769;SDS011;66961;51.482;9.160;2023-11-21T12:05:26;22.27;;;9.85;;
77769;SDS011;66961;51.482;9.160;2023-11-21T12:07:53;20.15;;;8.88;;
77769;SDS011;66961;51.482;9.160;2023-11-21T12:10:20;17.40;;;8.05;;
77769;SDS011;66961;51.482;9.160;2023-11-21T12:12:50;20.38;;;8.77;;
77769;SDS011;66961;51.482;9.160;2023-11-21T12:15:17;16.42;;;7.53;;
77769;SDS011;66961;51.482;9.160;2023-11-21T12:17:43;11.98;;;6.50;;
77769;SDS011;66961;51.482;9.160;2023-11-21T12:20:09;9.57;;;5.28;;
77769;SDS011;66961;51.482;9.160;2023-11-21T12:22:35;10.70;;;5.60;;
77769;SDS011;66961;51.482;9.160;2023-11-21T12:25:01;13.20;;;5.80;;
77769;SDS011;66961;51.482;9.160;2023-11-21T12:27:26;10.07;;;5.73;;
77769;SDS011;66961;51.482;9.160;2023-11-21T12:29:51;10.40;;;5.53;;
77769;SDS011;66961;51.482;9.160;2023-11-21T12:32:17;10.20;;;5.57;;
77769;SDS011;66961;51.482;9.160;2023-11-21T12:34:42;14.03;;;7.20;;
77769;SDS011;66961;51.482;9.160;2023-11-21T12:37:08;23.70;;;13.55;;
77769;SDS011;66961;51.482;9.160;2023-11-21T12:39:33;14.80;;;7.70;;
77769;SDS011;66961;51.482;9.160;2023-11-21T12:41:58;15.53;;;8.67;;
77769;SDS011;66961;51.482;9.160;2023-11-21T12:44:24;19.20;;;11.07;;
77769;SDS011;66961;51.482;9.160;2023-11-21T12:46:49;23.37;;;11.97;;
77769;SDS011;66961;51.482;9.160;2023-11-21T12:49:14;13.10;;;6.75;;
77769;SDS011;66961;51.482;9.160;2023-11-21T12:51:40;31.73;;;15.52;;
77769;SDS011;66961;51.482;9.160;2023-11-21T12:54:05;30.67;;;16.15;;
77769;SDS011;66961;51.482;9.160;2023-11-21T12:56:31;27.35;;;17.27;;
77769;SDS011;66961;51.482;9.160;2023-11-21T12:58:56;12.83;;;7.50;;
77769;SDS011;66961;51.482;9.160;2023-11-21T13:01:24;23.05;;;11.48;;
77769;SDS011;66961;51.482;9.160;2023-11-21T13:03:50;51.13;;;25.23;;
77769;SDS011;66961;51.482;9.160;2023-11-21T13:06:16;13.93;;;9.10;;
77769;SDS011;66961;51.482;9.160;2023-11-21T13:08:43;11.43;;;7.50;;
77769;SDS011;66961;51.482;9.160;2023-11-21T13:11:09;124.10;;;59.70;;
77769;SDS011;66961;51.482;9.160;2023-11-21T13:13:36;19.05;;;10.48;;
77769;SDS011;66961;51.482;9.160;2023-11-21T13:16:05;24.80;;;14.10;;
77769;SDS011;66961;51.482;9.160;2023-11-21T13:18:30;15.40;;;10.70;;
77769;SDS011;66961;51.482;9.160;2023-11-21T13:20:58;8.82;;;6.28;;
77769;SDS011;66961;51.482;9.160;2023-11-21T13:23:24;5.72;;;4.03;;
77769;SDS011;66961;51.482;9.160;2023-11-21T13:25:51;24.35;;;16.88;;
77769;SDS011;66961;51.482;9.160;2023-11-21T13:28:17;17.55;;;11.52;;
77769;SDS011;66961;51.482;9.160;2023-11-21T13:30:43;29.55;;;19.20;;
77769;SDS011;66961;51.482;9.160;2023-11-21T13:33:08;6.47;;;3.53;;
77769;SDS011;66961;51.482;9.160;2023-11-21T13:35:34;18.15;;;12.35;;
77769;SDS011;66961;51.482;9.160;2023-11-21T13:38:04;7.25;;;4.78;;
77769;SDS011;66961;51.482;9.160;2023-11-21T13:40:31;9.15;;;5.60;;
77769;SDS011;66961;51.482;9.160;2023-11-21T13:42:57;11.82;;;7.53;;
77769;SDS011;66961;51.482;9.160;2023-11-21T13:45:22;25.17;;;13.63;;
77769;SDS011;66961;51.482;9.160;2023-11-21T13:47:49;7.15;;;4.95;;
77769;SDS011;66961;51.482;9.160;2023-11-21T13:50:18;9.50;;;5.03;;
77769;SDS011;66961;51.482;9.160;2023-11-21T13:52:43;8.23;;;5.65;;
77769;SDS011;66961;51.482;9.160;2023-11-21T13:55:10;22.40;;;10.32;;
77769;SDS011;66961;51.482;9.160;2023-11-21T13:57:35;12.70;;;7.78;;
77769;SDS011;66961;51.482;9.160;2023-11-21T14:00:01;12.87;;;9.03;;
77769;SDS011;66961;51.482;9.160;2023-11-21T14:02:26;13.50;;;9.13;;
77769;SDS011;66961;51.482;9.160;2023-11-21T14:04:51;16.03;;;8.60;;
77769;SDS011;66961;51.482;9.160;2023-11-21T14:07:16;15.03;;;7.90;;
77769;SDS011;66961;51.482;9.160;2023-11-21T14:09:42;18.63;;;11.40;;
77769;SDS011;66961;51.482;9.160;2023-11-21T14:12:07;22.02;;;12.75;;
77769;SDS011;66961;51.482;9.160;2023-11-21T14:14:33;14.00;;;8.30;;
77769;SDS011;66961;51.482;9.160;2023-11-21T14:16:58;15.70;;;10.13;;
77769;SDS011;66961;51.482;9.160;2023-11-21T14:19:23;18.53;;;11.57;;
77769;SDS011;66961;51.482;9.160;2023-11-21T14:21:48;19.13;;;10.50;;
77769;SDS011;66961;51.482;9.160;2023-11-21T14:24:14;18.03;;;12.13;;
77769;SDS011;66961;51.482;9.160;2023-11-21T14:26:40;13.43;;;7.72;;
77769;SDS011;66961;51.482;9.160;2023-11-21T14:29:06;21.10;;;13.82;;
77769;SDS011;66961;51.482;9.160;2023-11-21T14:31:32;12.25;;;7.85;;